Latest Weather Observations for Albany Airport

IDW60801

Issued at 5:02 pm WST Friday 6 May 2016 (issued every 30 minutes, with the page automatically refreshed every 10 minutes)

About weather observations | Map of weather stations | Latest weather observations for WA | Other Formats
Station Details ID: 009999 Name: ALBANY AIRPORT Lat: -34.94 Lon: 117.82 Height: 68.4 m
Data from the previous 72 hours. | See also: Recent months at Albany Airport
Date/Time
WST
Temp
°C
App
Temp
°C
Dew
Point
Rel
Hum
%
Delta-T
°C
Wind Press
QNH
hPa
Press
MSL
hPa
Rain
since 9 am
mm
Dir
 
Spd
km/h
Gust
km/h
Spd
kts
Gust
kts
06/05:00pm 16.1 13.3 8.5 60 3.9 N 13 17 7 9 1004.0 - 0.2
06/04:30pm 16.1 13.7 8.7 61 3.8 NNW 11 15 6 8 1004.2 - 0.2
06/04:00pm 16.4 13.1 7.9 57 4.3 NNW 15 19 8 10 1004.5 - 0.2
06/03:30pm 17.0 14.0 7.5 53 4.8 WNW 13 17 7 9 1004.8 - 0.2
06/03:00pm 16.8 12.1 6.2 49 5.2 NW 20 28 11 15 1004.8 1004.9 0.2
06/02:30pm 17.1 11.6 6.1 48 5.4 WNW 24 32 13 17 1005.3 - 0.2
06/02:00pm 17.6 12.6 6.3 47 5.6 WNW 22 28 12 15 1005.7 - 0.2
06/01:30pm 17.3 12.9 6.4 48 5.4 NW 19 22 10 12 1005.8 - 0.2
06/01:00pm 18.7 13.7 6.5 45 6.1 NNW 22 30 12 16 1006.0 - 0.2
06/12:30pm 18.0 13.4 6.3 46 5.8 NW 20 28 11 15 1006.5 - 0.2
06/12:00pm 17.4 12.9 7.0 50 5.2 NNW 20 28 11 15 1007.2 1007.3 0.2
06/11:30am 17.1 12.9 7.4 53 4.9 NNW 19 24 10 13 1007.8 - 0.2
06/11:00am 16.7 12.8 7.3 54 4.7 NW 17 26 9 14 1008.4 - 0.0
06/10:30am 16.1 12.1 6.8 54 4.6 NNW 17 24 9 13 1008.9 - 0.0
06/10:00am 15.0 11.1 6.9 58 4.0 NNW 17 20 9 11 1009.4 - 0.0
06/09:30am 14.2 10.2 6.8 61 3.6 NNW 17 20 9 11 1010.1 - 0.0
06/09:00am 14.0 11.3 7.5 65 3.2 NNW 11 15 6 8 1010.3 1010.4 0.0
06/08:30am 13.1 10.0 7.1 67 2.9 NNW 13 19 7 10 1010.4 - 0.0
06/08:00am 12.9 10.1 7.1 68 2.8 NW 11 13 6 7 1010.6 - 0.0
06/07:30am 10.6 8.4 7.7 82 1.4 NW 9 11 5 6 1010.7 - 0.0
06/07:00am 9.6 6.9 7.5 87 1.0 NW 11 13 6 7 1010.5 - 0.0
06/06:30am 11.2 8.5 7.3 77 1.9 NW 11 13 6 7 1010.6 - 0.0
06/06:00am 11.0 9.1 7.5 79 1.7 N 7 13 4 7 1010.7 1010.8 0.0
06/05:30am 11.0 9.1 7.7 80 1.6 N 7 11 4 6 1010.7 - 0.0
06/05:00am 11.2 8.6 7.7 79 1.7 NNW 11 13 6 7 1010.7 - 0.0
06/04:30am 11.3 8.3 7.6 78 1.8 NNW 13 17 7 9 1011.0 - 0.0
06/04:00am 11.3 8.7 7.8 79 1.7 NW 11 15 6 8 1011.3 - 0.0
06/03:30am 11.4 7.9 7.2 75 2.0 NNW 15 19 8 10 1011.6 - 0.0
06/03:00am 11.5 7.5 6.7 72 2.3 NNW 17 20 9 11 1011.8 1011.8 0.0
06/02:30am 11.2 8.4 6.8 74 2.1 NNW 11 15 6 8 1012.0 - 0.0
06/02:00am 10.9 8.9 7.1 77 1.8 NNW 7 9 4 5 1012.2 - 0.0
06/01:30am 10.9 8.9 7.1 77 1.8 NW 7 11 4 6 1012.6 - 0.0
06/01:00am 10.9 8.5 7.1 77 1.8 NW 9 13 5 7 1012.6 - 0.0
06/12:30am 9.9 7.7 8.0 88 0.9 N 9 13 5 7 1012.6 - 0.0
06/12:00am 10.1 7.8 8.9 92 0.6 N 11 11 6 6 1012.9 1012.9 0.0
 
Date/Time
WST
Temp
°C
App
Temp
°C
Dew
Point
Rel
Hum
%
Delta-T
°C
Wind Press
QNH
hPa
Press
MSL
hPa
Rain
since 9 am
mm
Dir
 
Spd
km/h
Gust
km/h
Spd
kts
Gust
kts
05/11:30pm 10.3 8.8 8.5 89 0.9 NNW 6 7 3 4 1013.3 - 0.0
05/11:00pm 11.0 9.8 9.4 90 0.8 NNW 6 7 3 4 1013.6 - 0.0
05/10:30pm 11.1 9.3 9.3 89 0.9 N 9 11 5 6 1013.9 - 0.0
05/10:00pm 10.0 9.0 9.0 93 0.5 N 4 9 2 5 1014.0 - 0.0
05/09:30pm 11.2 11.0 9.2 87 1.0 CALM 0 0 0 0 1014.4 - 0.0
05/09:00pm 12.6 12.4 9.0 79 1.8 CALM 0 0 0 0 1014.7 1014.8 0.0
05/08:30pm 11.7 10.4 9.9 89 0.9 N 7 9 4 5 1014.7 - 0.0
05/08:00pm 12.0 11.0 10.3 89 0.9 N 6 7 3 4 1014.6 - 0.0
05/07:30pm 12.4 11.1 9.9 85 1.3 NW 7 7 4 4 1014.7 - 0.0
05/07:00pm 12.6 10.9 9.7 82 1.5 NNW 9 11 5 6 1014.8 - 0.0
05/06:30pm 13.4 11.5 9.1 75 2.2 W 9 11 5 6 1014.7 - 0.0
05/06:00pm 13.4 11.1 9.1 75 2.2 W 11 13 6 7 1014.6 1014.7 0.0
05/05:30pm 13.9 11.8 8.3 69 2.8 W 9 13 5 7 1014.5 - 0.0
05/05:00pm 14.1 12.1 8.5 69 2.8 WSW 9 11 5 6 1014.5 - 0.0
05/04:30pm 14.5 11.9 7.6 63 3.4 WSW 11 17 6 9 1014.7 - 0.0
05/04:00pm 14.7 12.6 8.1 64 3.3 WSW 9 11 5 6 1014.7 - 0.0
05/03:30pm 14.9 12.2 7.4 61 3.7 W 11 15 6 8 1014.5 - 0.0
05/03:00pm 15.0 11.9 7.3 60 3.8 W 13 17 7 9 1014.3 1014.3 0.0
05/02:30pm 14.9 11.4 7.0 59 3.9 WSW 15 20 8 11 1014.4 - 0.0
05/02:00pm 15.0 11.4 6.6 57 4.1 SW 15 22 8 12 1014.5 - 0.0
05/01:30pm 15.3 12.1 6.7 56 4.2 WSW 13 17 7 9 1014.4 - 0.0
05/01:00pm 15.2 11.3 5.3 51 4.7 SSW 15 24 8 13 1014.4 - 0.0
05/12:30pm 15.3 10.4 5.2 51 4.8 WSW 20 28 11 15 1014.7 - 0.0
05/12:00pm 15.4 10.8 5.8 52 4.6 SW 19 24 10 13 1015.0 1015.1 0.0
05/11:30am 15.4 10.8 5.8 52 4.6 WSW 19 30 10 16 1015.3 - 0.0
05/11:00am 15.4 10.9 6.3 54 4.4 SW 19 26 10 14 1015.4 - 0.0
05/10:30am 15.1 10.5 6.5 56 4.2 SW 20 24 11 13 1015.3 - 0.0
05/10:00am 15.6 11.3 7.8 59 3.9 SW 20 28 11 15 1015.2 - 0.0
05/09:30am 14.9 11.6 7.9 63 3.5 W 15 19 8 10 1015.3 - 0.0
05/09:00am 14.7 11.6 7.4 61 3.6 WSW 13 17 7 9 1015.1 1015.2 2.6
05/08:30am 14.0 11.0 7.5 65 3.2 WSW 13 17 7 9 1015.1 - 2.6
05/08:00am 13.4 10.4 7.5 67 2.9 WSW 13 17 7 9 1014.7 - 2.6
05/07:30am 12.8 9.9 8.2 73 2.3 WSW 13 17 7 9 1014.4 - 2.6
05/07:00am 13.4 10.2 8.6 73 2.4 WSW 15 22 8 12 1014.1 - 2.6
05/06:30am 13.7 10.8 9.6 76 2.1 WSW 15 20 8 11 1013.9 - 2.6
05/06:00am 13.8 11.4 9.9 77 2.0 WSW 13 19 7 10 1013.7 1013.7 2.6
05/05:30am 13.9 11.2 10.3 79 1.9 WSW 15 20 8 11 1013.5 - 2.6
05/05:00am 13.8 10.4 10.6 81 1.7 SW 19 28 10 15 1013.0 - 2.6
05/04:30am 13.9 11.2 11.7 86 1.2 SW 17 26 9 14 1012.8 - 2.6
05/04:08am 14.0 11.4 12.0 88 1.1 SW 17 24 9 13 1012.6 - 2.6
05/04:00am 13.8 11.3 12.3 91 0.8 SW 17 24 9 13 1012.6 - 2.6
05/03:54am 13.7 11.7 12.8 94 0.5 WSW 15 24 8 13 1012.6 - 2.6
05/03:30am 13.6 12.1 13.2 97 0.2 W 13 17 7 9 1012.6 - 2.6
05/03:25am 13.6 12.2 13.4 99 0.1 W 13 17 7 9 1012.5 - 2.6
05/03:13am 13.6 12.1 13.2 97 0.2 W 13 17 7 9 1012.4 - 2.6
05/03:00am 13.6 12.1 13.2 97 0.2 W 13 17 7 9 1012.4 1012.4 2.4
05/02:43am 13.6 11.8 13.2 97 0.2 W 15 19 8 10 1012.2 - 1.6
05/02:42am 13.6 11.7 13.1 97 0.3 W 15 19 8 10 1012.2 - 1.6
05/02:30am 13.6 11.0 13.1 97 0.3 W 19 22 10 12 1012.0 - 1.4
05/02:11am 13.5 10.6 12.8 95 0.4 W 20 28 11 15 1012.1 - 1.0
05/02:00am 13.6 10.6 12.7 94 0.5 W 20 28 11 15 1011.8 - 0.6
05/01:38am 13.9 10.8 12.2 89 0.9 W 20 26 11 14 1011.7 - 0.2
05/01:30am 13.9 10.4 12.2 89 0.9 WNW 22 26 12 14 1011.6 - 0.2
05/01:00am 13.4 10.4 11.9 91 0.8 WNW 19 22 10 12 1011.4 - 0.2
05/12:30am 13.3 10.8 12.2 93 0.6 WNW 17 22 9 12 1011.4 - 0.2
05/12:00am 13.1 10.1 12.0 93 0.6 WNW 19 24 10 13 1011.6 1011.6 0.2
 
Date/Time
WST
Temp
°C
App
Temp
°C
Dew
Point
Rel
Hum
%
Delta-T
°C
Wind Press
QNH
hPa
Press
MSL
hPa
Rain
since 9 am
mm
Dir
 
Spd
km/h
Gust
km/h
Spd
kts
Gust
kts
04/11:30pm 13.4 10.5 12.3 93 0.6 WNW 19 22 10 12 1011.6 - 0.2
04/11:00pm 13.4 10.6 12.5 94 0.5 WNW 19 22 10 12 1011.9 - 0.2
04/10:35pm 13.9 10.5 12.6 92 0.7 W 22 30 12 16 1012.0 - 0.2
04/10:30pm 14.1 10.4 12.6 91 0.8 W 24 30 13 16 1012.1 - 0.2
04/10:14pm 14.6 11.7 13.0 90 0.9 W 20 33 11 18 1012.4 - 0.2
04/10:11pm 14.7 12.0 12.9 89 1.0 W 19 22 10 12 1012.2 - 0.0
04/10:00pm 14.7 12.4 12.9 89 1.0 W 17 22 9 12 1012.1 - 0.0
04/09:55pm 14.8 12.4 12.8 88 1.1 W 17 22 9 12 1012.2 - 0.0
04/09:30pm 15.6 12.6 11.9 78 2.0 W 19 24 10 13 1012.0 - 0.0
04/09:11pm 15.6 10.9 11.9 78 2.0 W 28 44 15 24 1011.9 - 0.0
04/09:00pm 16.0 12.7 11.6 75 2.4 WNW 20 26 11 14 1011.9 1011.9 0.0
04/08:30pm 16.1 12.9 11.9 76 2.3 WNW 20 30 11 16 1011.8 - 0.0
04/08:00pm 16.2 13.1 12.2 77 2.2 W 20 28 11 15 1011.7 - 0.0
04/07:30pm 15.7 13.0 12.8 83 1.6 WNW 19 26 10 14 1011.6 - 0.0
04/07:00pm 15.7 12.5 13.0 84 1.5 W 22 32 12 17 1011.6 - 0.0
04/06:30pm 15.4 12.3 13.3 87 1.2 WNW 22 30 12 16 1011.1 - 0.0
04/06:15pm 15.3 9.8 13.5 89 1.0 W 35 54 19 29 1011.2 - 0.0
04/06:07pm 15.9 10.0 13.6 86 1.3 W 37 54 20 29 1011.1 - 0.0
04/06:00pm 16.6 12.3 13.2 80 1.9 W 28 48 15 26 1010.9 1011.0 0.0
04/05:59pm 16.7 12.4 13.1 79 2.0 W 28 48 15 26 1010.9 - 0.0
04/05:30pm 18.1 13.6 11.3 64 3.7 WSW 26 35 14 19 1010.7 - 0.0
04/05:00pm 18.7 14.5 11.2 61 4.1 W 24 35 13 19 1010.5 - 0.0
04/04:30pm 19.5 14.7 11.5 60 4.4 W 28 35 15 19 1010.5 - 0.0
04/04:00pm 19.5 15.4 11.5 60 4.4 W 24 33 13 18 1010.3 - 0.0
04/03:30pm 20.3 15.5 11.5 57 4.9 W 28 39 15 21 1010.4 - 0.0
04/03:15pm 21.2 15.3 10.4 50 5.9 W 32 50 17 27 1010.3 - 0.0
04/03:00pm 20.8 14.9 11.0 53 5.4 WNW 33 43 18 23 1010.3 1010.4 0.0
04/02:30pm 19.4 15.6 12.3 63 4.0 W 24 32 13 17 1010.6 - 0.0
04/02:00pm 20.3 15.2 11.9 58 4.7 W 30 37 16 20 1010.6 - 0.0
04/01:30pm 21.4 15.7 11.8 54 5.4 WNW 33 46 18 25 1010.8 - 0.0
04/01:00pm 20.3 14.7 13.3 64 4.0 WNW 35 46 19 25 1011.1 - 0.0
04/12:30pm 19.8 15.1 13.3 66 3.7 WNW 30 37 16 20 1011.6 - 0.0
04/12:00pm 20.2 16.7 13.4 65 3.9 W 24 35 13 19 1012.1 1012.1 0.0
04/11:30am 19.3 14.9 12.9 66 3.6 WNW 28 39 15 21 1012.8 - 0.0
04/11:00am 19.5 14.7 12.8 65 3.8 WNW 30 43 16 23 1013.3 - 0.0
04/10:30am 18.3 13.4 12.4 68 3.3 W 30 39 16 21 1013.6 - 0.0
04/10:00am 18.9 14.7 12.5 66 3.6 WNW 26 33 14 18 1013.8 - 0.0
04/09:30am 18.2 14.4 12.3 68 3.3 WNW 24 33 13 18 1014.0 - 0.0
04/09:00am 17.0 13.7 12.7 76 2.4 WNW 22 32 12 17 1014.3 1014.3 0.0
04/08:30am 16.6 12.8 12.4 76 2.3 WNW 24 32 13 17 1014.7 - 0.0
04/08:00am 15.3 12.1 11.8 79 1.9 NW 20 26 11 14 1014.7 - 0.0
04/07:30am 14.3 11.7 11.9 85 1.3 NW 17 20 9 11 1014.7 - 0.0
04/07:00am 13.6 11.7 11.7 88 1.0 NNW 13 19 7 10 1014.7 - 0.0
04/06:30am 13.7 11.7 11.6 87 1.1 NNW 13 17 7 9 1014.6 - 0.0
04/06:00am 14.0 12.0 11.6 85 1.3 NW 13 20 7 11 1014.7 1014.8 0.0
04/05:30am 14.1 12.2 11.9 86 1.2 NW 13 17 7 9 1014.8 - 0.0
04/05:00am 14.2 12.4 12.0 87 1.2 NW 13 17 7 9 1014.8 - 0.0
04/04:30am 14.2 12.0 12.0 87 1.2 WNW 15 19 8 10 1015.0 - 0.0
04/04:00am 14.1 12.3 12.1 88 1.1 NW 13 19 7 10 1015.2 - 0.0
04/03:30am 14.1 11.1 12.1 88 1.1 NW 19 22 10 12 1015.2 - 0.0
04/03:00am 13.9 11.7 12.0 88 1.0 NW 15 20 8 11 1015.5 1015.6 0.0
04/02:30am 13.6 11.4 12.1 91 0.8 NW 15 19 8 10 1015.7 - 0.0
04/02:00am 13.2 11.0 12.1 93 0.6 NW 15 19 8 10 1015.9 - 0.0
04/01:30am 12.7 10.4 11.6 93 0.6 WNW 15 19 8 10 1016.2 - 0.0
04/01:00am 12.6 10.2 11.5 93 0.6 NW 15 19 8 10 1016.3 - 0.0
04/12:30am 12.7 10.4 11.6 93 0.6 NW 15 17 8 9 1016.4 - 0.0
04/12:00am 12.3 10.2 11.2 93 0.6 NW 13 17 7 9 1016.8 1016.9 0.0
 
Date/Time
WST
Temp
°C
App
Temp
°C
Dew
Point
Rel
Hum
%
Delta-T
°C
Wind Press
QNH
hPa
Press
MSL
hPa
Rain
since 9 am
mm
Dir
 
Spd
km/h
Gust
km/h
Spd
kts
Gust
kts
03/11:30pm 10.8 8.0 10.0 95 0.4 NW 15 17 8 9 1017.0 - 0.0
03/11:00pm 10.3 7.7 9.5 95 0.4 NW 13 15 7 8 1017.2 - 0.0
03/10:30pm 11.1 9.1 10.1 94 0.5 NNW 11 13 6 7 1017.5 - 0.0
03/10:00pm 11.6 9.3 10.6 94 0.5 NNW 13 15 7 8 1017.7 - 0.0
03/09:34pm 11.5 9.3 10.7 95 0.4 NNW 13 13 7 7 1017.9 - 0.0
03/09:30pm 11.6 9.4 10.8 95 0.4 NNW 13 17 7 9 1018.0 - 0.0
03/09:06pm 10.6 8.6 10.0 96 0.3 NW 11 13 6 7 1018.1 - 0.0
03/09:00pm 10.7 8.7 10.3 97 0.2 NW 11 13 6 7 1018.2 1018.3 0.0
03/08:30pm 10.9 8.6 10.3 96 0.3 NW 13 15 7 8 1018.3 - 0.0
03/08:00pm 11.0 9.9 10.6 97 0.2 NW 7 11 4 6 1018.5 - 0.0
03/07:30pm 11.8 10.4 11.0 95 0.4 NW 9 9 5 5 1018.5 - 0.0
03/07:00pm 12.4 11.1 11.1 92 0.7 W 9 11 5 6 1018.6 - 0.0
03/06:30pm 13.6 12.0 11.7 88 1.0 W 11 11 6 6 1018.4 - 0.0
03/06:00pm 14.3 12.8 11.9 85 1.3 WSW 11 13 6 7 1018.4 1018.5 0.0
03/05:30pm 14.9 13.4 11.9 82 1.6 W 11 13 6 7 1018.3 - 0.0

Other Formats:

Comma delimited format used in spreadsheet applications
http://www.bom.gov.au/fwo/IDW60801/IDW60801.94802.axf

JavaScript Object Notation format (JSON) in row-major order
http://www.bom.gov.au/fwo/IDW60801/IDW60801.94802.json